createdAt,value
2023-03-24T00:00:26.653Z,16.60
2023-03-24T00:02:53.924Z,16.70
2023-03-24T00:05:23.009Z,16.70
2023-03-24T00:07:54.531Z,16.80
2023-03-24T00:10:22.867Z,16.80
2023-03-24T00:12:51.012Z,16.90
2023-03-24T00:15:24.039Z,17.00
2023-03-24T00:17:52.185Z,17.00
2023-03-24T00:20:22.253Z,17.10
2023-03-24T00:22:57.028Z,17.10
2023-03-24T00:25:29.977Z,17.20
2023-03-24T00:27:57.732Z,17.20
2023-03-24T00:30:26.069Z,17.30
2023-03-24T00:32:53.988Z,17.40
2023-03-24T00:35:21.924Z,17.40
2023-03-24T00:37:52.054Z,17.50
2023-03-24T00:40:20.908Z,17.50
2023-03-24T00:42:49.830Z,17.60
2023-03-24T00:45:23.401Z,17.60
2023-03-24T00:47:54.681Z,17.70
2023-03-24T00:50:27.009Z,17.80
2023-03-24T00:52:55.322Z,17.80
2023-03-24T00:55:23.018Z,17.90
2023-03-24T00:57:50.884Z,17.80
2023-03-24T01:00:24.072Z,17.80
2023-03-24T01:02:55.382Z,17.80
2023-03-24T01:05:25.675Z,17.80
2023-03-24T01:07:53.005Z,17.80
2023-03-24T01:10:26.316Z,17.80
2023-03-24T01:12:56.509Z,17.80
2023-03-24T01:15:26.534Z,17.80
2023-03-24T01:17:54.448Z,17.80
2023-03-24T01:20:23.299Z,17.90
2023-03-24T01:22:51.681Z,17.80
2023-03-24T01:25:21.683Z,17.80
2023-03-24T01:27:51.780Z,17.80
2023-03-24T01:30:23.035Z,17.80
2023-03-24T01:32:51.272Z,17.80
2023-03-24T01:35:18.996Z,17.70
2023-03-24T01:37:45.898Z,17.60
2023-03-24T01:40:19.499Z,17.60
2023-03-24T01:42:46.516Z,17.50
2023-03-24T01:45:50.989Z,17.50
2023-03-24T01:48:23.368Z,17.40
2023-03-24T01:51:09.358Z,17.40
2023-03-24T01:53:40.603Z,17.40
2023-03-24T01:56:09.175Z,17.40
2023-03-24T01:58:44.068Z,17.50
2023-03-24T02:01:29.895Z,17.40
2023-03-24T02:04:11.347Z,17.40
2023-03-24T02:06:43.863Z,17.50
2023-03-24T02:09:12.748Z,17.50
2023-03-24T02:11:41.527Z,17.60
2023-03-24T02:14:09.334Z,17.70
2023-03-24T02:16:45.227Z,17.90
2023-03-24T02:19:49.937Z,18.00
2023-03-24T02:22:44.069Z,18.00
2023-03-24T02:25:26.220Z,18.10
2023-03-24T02:28:21.077Z,18.20
2023-03-24T02:31:31.072Z,18.30
2023-03-24T02:34:17.024Z,18.40
2023-03-24T02:37:13.127Z,18.30
2023-03-24T02:39:58.995Z,18.40
2023-03-24T02:42:35.003Z,18.40
2023-03-24T02:45:16.731Z,18.50
2023-03-24T02:48:12.164Z,18.40
2023-03-24T02:50:45.792Z,18.20
2023-03-24T02:53:35.497Z,18.10
2023-03-24T02:56:43.438Z,18.00
2023-03-24T02:59:54.977Z,18.00
2023-03-24T03:02:48.370Z,18.00
2023-03-24T03:05:37.520Z,18.00
2023-03-24T03:08:07.393Z,18.00
2023-03-24T03:10:40.890Z,18.00
2023-03-24T03:13:15.736Z,18.00
2023-03-24T03:15:48.037Z,18.00
2023-03-24T03:18:23.033Z,18.00
2023-03-24T03:20:57.667Z,18.00
2023-03-24T03:23:30.480Z,18.00
2023-03-24T03:26:06.248Z,17.90
2023-03-24T03:28:36.868Z,17.80
2023-03-24T03:31:08.571Z,17.80
2023-03-24T03:34:07.399Z,17.70
2023-03-24T03:36:46.285Z,17.70
2023-03-24T03:39:25.474Z,17.70
2023-03-24T03:41:53.194Z,17.60
2023-03-24T03:44:20.870Z,17.60
2023-03-24T03:46:47.698Z,17.60
2023-03-24T03:49:21.798Z,17.50
2023-03-24T03:51:50.321Z,17.50
2023-03-24T03:54:18.959Z,17.50
2023-03-24T03:56:49.961Z,17.40
2023-03-24T03:59:35.712Z,17.40
2023-03-24T04:02:16.905Z,17.20
2023-03-24T04:05:03.261Z,16.80
2023-03-24T04:08:18.676Z,16.60
2023-03-24T04:11:15.805Z,16.00
2023-03-24T04:14:33.203Z,15.30
2023-03-24T04:17:54.543Z,14.90
2023-03-24T04:21:02.254Z,14.50
2023-03-24T04:23:54.291Z,14.00
2023-03-24T04:26:42.278Z,13.90
2023-03-24T04:29:30.018Z,13.80
2023-03-24T04:32:11.333Z,13.70
2023-03-24T04:34:42.220Z,13.70
2023-03-24T04:37:32.831Z,13.70
2023-03-24T04:40:14.918Z,13.70
2023-03-24T04:42:46.721Z,13.70
2023-03-24T04:45:17.150Z,13.70
2023-03-24T04:47:57.117Z,13.60
2023-03-24T04:50:43.449Z,13.60
2023-03-24T04:53:19.253Z,13.60
2023-03-24T04:56:06.616Z,13.50
2023-03-24T04:59:01.112Z,13.50
2023-03-24T05:01:29.589Z,13.50
2023-03-24T05:04:21.767Z,13.50
2023-03-24T05:06:49.785Z,13.50
2023-03-24T05:09:25.490Z,13.60
2023-03-24T05:11:52.712Z,13.60
2023-03-24T05:14:21.464Z,13.60
2023-03-24T05:16:48.762Z,13.60
2023-03-24T05:19:18.707Z,13.60
2023-03-24T05:21:47.261Z,13.70
2023-03-24T05:24:14.310Z,13.70
2023-03-24T05:26:41.306Z,13.70
2023-03-24T05:29:15.704Z,13.70
2023-03-24T05:31:44.750Z,13.70
2023-03-24T05:34:16.484Z,13.80
2023-03-24T05:36:55.549Z,13.80
2023-03-24T05:39:23.231Z,13.80
2023-03-24T05:42:17.198Z,13.80
2023-03-24T05:44:44.320Z,13.80
2023-03-24T05:47:20.084Z,13.80
2023-03-24T05:49:47.530Z,13.90
2023-03-24T05:52:16.436Z,13.90
2023-03-24T05:54:46.039Z,13.90
2023-03-24T05:57:17.409Z,13.90
2023-03-24T06:00:10.582Z,14.00
2023-03-24T06:03:06.107Z,14.00
2023-03-24T06:05:45.894Z,14.00
2023-03-24T06:08:13.575Z,13.90
2023-03-24T06:10:41.180Z,13.90
2023-03-24T06:13:09.439Z,13.90
2023-03-24T06:15:43.000Z,13.90
2023-03-24T06:18:52.531Z,13.80
2023-03-24T06:21:39.472Z,13.70
2023-03-24T06:24:06.785Z,13.70
2023-03-24T06:26:36.758Z,13.60
2023-03-24T06:29:04.709Z,13.60
2023-03-24T06:31:37.399Z,13.50
2023-03-24T06:34:05.346Z,13.50
2023-03-24T06:36:34.658Z,13.40
2023-03-24T06:39:02.986Z,13.40
2023-03-24T06:41:31.381Z,13.40
2023-03-24T06:44:01.188Z,13.40
2023-03-24T06:46:28.803Z,13.30
2023-03-24T06:48:56.499Z,13.40
2023-03-24T06:51:23.578Z,13.40
2023-03-24T06:53:51.089Z,13.40
2023-03-24T06:56:20.212Z,13.40
2023-03-24T06:58:53.079Z,13.30
2023-03-24T07:01:26.054Z,13.30
2023-03-24T07:03:59.296Z,13.30
2023-03-24T07:07:02.115Z,13.30
2023-03-24T07:09:38.735Z,13.30
2023-03-24T07:12:06.302Z,13.40
2023-03-24T07:14:34.309Z,13.30
2023-03-24T07:17:02.445Z,13.30
2023-03-24T07:20:08.403Z,13.30
2023-03-24T07:22:58.997Z,13.40
2023-03-24T07:25:26.153Z,13.40
2023-03-24T07:28:04.276Z,13.30
2023-03-24T07:30:39.701Z,13.30
2023-03-24T07:33:10.931Z,13.30
2023-03-24T07:35:39.141Z,13.20
2023-03-24T07:38:07.470Z,13.20
2023-03-24T07:40:37.723Z,13.10
2023-03-24T07:43:06.667Z,13.10
2023-03-24T07:45:54.774Z,13.00
2023-03-24T07:48:21.818Z,13.00
2023-03-24T07:50:49.884Z,13.00
2023-03-24T07:53:47.791Z,12.90
2023-03-24T07:56:22.859Z,12.90
2023-03-24T07:58:55.023Z,12.90
2023-03-24T08:01:47.797Z,12.90
2023-03-24T08:04:16.237Z,12.90
2023-03-24T08:06:49.019Z,12.90
2023-03-24T08:09:16.299Z,12.90
2023-03-24T08:11:43.145Z,12.90
2023-03-24T08:14:10.109Z,12.90
2023-03-24T08:16:39.018Z,13.00
2023-03-24T08:19:06.474Z,12.90
2023-03-24T08:21:33.667Z,12.90
2023-03-24T08:24:00.623Z,12.90
2023-03-24T08:26:27.776Z,12.90
2023-03-24T08:28:54.715Z,12.90
2023-03-24T08:31:22.113Z,12.90
2023-03-24T08:33:49.050Z,12.80
2023-03-24T08:36:16.056Z,12.80
2023-03-24T08:38:43.008Z,12.80
2023-03-24T08:41:10.005Z,12.90
2023-03-24T08:43:39.584Z,12.90
2023-03-24T08:46:08.057Z,12.90
2023-03-24T08:48:37.188Z,12.90
2023-03-24T08:51:11.814Z,12.90
2023-03-24T08:53:38.893Z,13.00
2023-03-24T08:56:07.048Z,13.00
2023-03-24T08:58:34.450Z,13.00
2023-03-24T09:01:02.002Z,13.00
2023-03-24T09:03:28.999Z,13.10
2023-03-24T09:06:00.005Z,13.20
2023-03-24T09:08:27.537Z,13.30
2023-03-24T09:10:54.445Z,13.40
2023-03-24T09:13:21.448Z,13.40
2023-03-24T09:15:54.556Z,13.50
2023-03-24T09:18:21.926Z,13.60
2023-03-24T09:20:49.808Z,13.70
2023-03-24T09:23:18.116Z,13.70
2023-03-24T09:25:45.990Z,13.80
2023-03-24T09:28:14.945Z,13.90
2023-03-24T09:30:42.270Z,13.90
2023-03-24T09:33:09.341Z,13.90
2023-03-24T09:35:36.501Z,14.00
2023-03-24T09:38:03.810Z,14.00
2023-03-24T09:40:37.953Z,14.10
2023-03-24T09:43:22.418Z,14.20
2023-03-24T09:45:53.621Z,14.30
2023-03-24T09:48:42.365Z,14.50
2023-03-24T09:51:25.373Z,14.60
2023-03-24T09:54:11.465Z,14.70
2023-03-24T09:56:41.439Z,14.70
2023-03-24T09:59:20.696Z,14.70
2023-03-24T10:01:49.884Z,14.70
2023-03-24T10:04:22.119Z,14.70
2023-03-24T10:06:54.798Z,14.60
2023-03-24T10:09:28.748Z,14.40
2023-03-24T10:11:59.450Z,14.10
2023-03-24T10:14:41.666Z,13.80
2023-03-24T10:17:11.706Z,13.60
2023-03-24T10:19:48.997Z,13.40
2023-03-24T10:22:41.287Z,13.20
2023-03-24T10:25:26.772Z,13.00
2023-03-24T10:28:19.979Z,12.80
2023-03-24T10:30:49.946Z,12.60
2023-03-24T10:33:17.762Z,12.60
2023-03-24T10:36:09.447Z,12.50
2023-03-24T10:38:36.561Z,12.50
2023-03-24T10:41:04.354Z,12.50
2023-03-24T10:43:32.374Z,12.50
2023-03-24T10:46:02.144Z,12.50
2023-03-24T10:48:45.984Z,12.50
2023-03-24T10:51:19.525Z,12.50
2023-03-24T10:53:48.606Z,12.50
2023-03-24T10:56:38.297Z,12.50
2023-03-24T10:59:20.630Z,12.50
2023-03-24T11:01:48.249Z,12.40
2023-03-24T11:04:20.013Z,12.40
2023-03-24T11:07:13.993Z,12.30
2023-03-24T11:09:46.207Z,12.30
2023-03-24T11:12:33.912Z,12.20
2023-03-24T11:15:24.103Z,12.20
2023-03-24T11:18:16.733Z,12.20
2023-03-24T11:20:51.084Z,12.20
2023-03-24T11:23:32.512Z,12.30
2023-03-24T11:26:16.901Z,12.50
2023-03-24T11:28:48.009Z,12.60
2023-03-24T11:31:24.529Z,12.70
2023-03-24T11:33:58.034Z,12.80
2023-03-24T11:36:31.225Z,12.90
2023-03-24T11:39:17.598Z,13.00
2023-03-24T11:41:51.649Z,13.00
2023-03-24T11:44:24.706Z,13.10
2023-03-24T11:47:09.939Z,13.10
2023-03-24T11:49:49.226Z,13.20
2023-03-24T11:52:32.643Z,13.30
2023-03-24T11:54:59.642Z,13.30
2023-03-24T11:57:53.064Z,13.30
2023-03-24T12:00:30.520Z,13.40
2023-03-24T12:03:35.747Z,13.50
2023-03-24T12:10:25.165Z,13.50
2023-03-24T12:13:31.784Z,13.70
2023-03-24T12:16:29.441Z,13.80
2023-03-24T12:19:41.397Z,13.80
2023-03-24T12:25:39.420Z,13.80
2023-03-24T12:28:08.999Z,13.90
2023-03-24T12:30:48.158Z,14.00
2023-03-24T12:33:25.796Z,14.00
2023-03-24T12:36:05.011Z,14.10
2023-03-24T12:38:51.709Z,14.20
2023-03-24T12:41:18.705Z,14.10
2023-03-24T12:44:13.508Z,14.00
2023-03-24T12:47:04.417Z,13.70
2023-03-24T12:49:50.114Z,13.50
2023-03-24T12:52:19.790Z,13.30
2023-03-24T12:55:04.902Z,13.10
2023-03-24T12:57:48.351Z,13.00
2023-03-24T13:00:27.510Z,13.00
2023-03-24T13:03:16.519Z,13.00
2023-03-24T13:05:59.802Z,13.10
2023-03-24T13:08:34.409Z,13.10
2023-03-24T13:11:19.179Z,13.20
2023-03-24T13:13:56.894Z,13.30
2023-03-24T13:16:31.891Z,13.40
2023-03-24T13:19:03.214Z,13.50
2023-03-24T13:21:35.455Z,13.50
2023-03-24T13:24:13.590Z,13.60
2023-03-24T13:26:54.116Z,13.60
2023-03-24T13:29:45.663Z,13.70
2023-03-24T13:32:25.033Z,13.70
2023-03-24T13:35:04.420Z,13.80
2023-03-24T13:37:56.744Z,13.80
2023-03-24T13:40:29.530Z,13.80
2023-03-24T13:43:09.198Z,13.80
2023-03-24T13:45:52.939Z,13.60
2023-03-24T13:48:25.892Z,13.40
2023-03-24T13:51:05.398Z,13.30
2023-03-24T13:54:14.487Z,13.00
2023-03-24T13:56:56.313Z,12.70
2023-03-24T13:59:28.841Z,12.40
2023-03-24T14:02:21.005Z,12.10
2023-03-24T14:05:04.462Z,12.00
2023-03-24T14:07:39.284Z,11.90
2023-03-24T14:10:20.542Z,11.80
2023-03-24T14:12:59.720Z,11.80
2023-03-24T14:15:31.832Z,11.80
2023-03-24T14:18:24.611Z,11.70
2023-03-24T14:21:31.579Z,11.70
2023-03-24T14:23:59.679Z,11.70
2023-03-24T14:26:26.572Z,11.70
2023-03-24T14:29:31.960Z,11.80
2023-03-24T14:32:35.801Z,11.70
2023-03-24T14:35:31.614Z,11.80
2023-03-24T14:38:27.401Z,11.80
2023-03-24T14:43:46.815Z,11.70
2023-03-24T14:46:20.705Z,11.60
2023-03-24T14:49:00.796Z,11.70
2023-03-24T14:51:49.960Z,11.70
2023-03-24T14:54:34.819Z,11.80
2023-03-24T14:57:03.687Z,11.80
2023-03-24T14:59:37.901Z,12.00
2023-03-24T15:02:29.630Z,12.10
2023-03-24T15:05:17.564Z,12.10
2023-03-24T15:07:47.111Z,12.20
2023-03-24T15:10:19.404Z,12.30
2023-03-24T15:12:50.362Z,12.40
2023-03-24T15:15:21.426Z,12.50
2023-03-24T15:17:49.554Z,12.70
2023-03-24T15:20:23.117Z,12.90
2023-03-24T15:22:52.019Z,13.30
2023-03-24T15:25:19.008Z,13.90
2023-03-24T15:27:53.197Z,14.30
2023-03-24T15:30:20.263Z,14.50
2023-03-24T15:32:47.698Z,14.70
2023-03-24T15:35:18.314Z,14.90
2023-03-24T15:37:51.064Z,15.40
2023-03-24T15:40:26.894Z,16.10
2023-03-24T15:42:55.613Z,16.50
2023-03-24T15:45:29.943Z,16.70
2023-03-24T15:47:58.432Z,17.10
2023-03-24T15:50:40.600Z,16.90
2023-03-24T15:53:22.151Z,16.40
2023-03-24T15:56:24.246Z,16.00
2023-03-24T15:58:54.078Z,15.50
2023-03-24T16:01:31.331Z,15.20
2023-03-24T16:04:01.974Z,15.00
2023-03-24T16:06:35.441Z,14.70
2023-03-24T16:09:09.491Z,14.50
2023-03-24T16:11:36.359Z,14.40
2023-03-24T16:14:19.198Z,14.30
2023-03-24T16:16:46.093Z,14.20
2023-03-24T16:19:13.465Z,14.10
2023-03-24T16:21:40.452Z,14.10
2023-03-24T16:24:08.601Z,14.20
2023-03-24T16:26:35.354Z,14.60
2023-03-24T16:29:18.718Z,14.80
2023-03-24T16:31:49.173Z,15.10
2023-03-24T16:34:20.880Z,15.70
2023-03-24T16:36:49.778Z,16.20
2023-03-24T16:39:19.758Z,16.30
2023-03-24T16:41:47.005Z,16.20
2023-03-24T16:44:14.444Z,16.30
2023-03-24T16:46:41.865Z,16.00
2023-03-24T16:49:16.055Z,15.80
2023-03-24T16:51:43.560Z,15.50
2023-03-24T16:54:10.647Z,15.30
2023-03-24T16:56:38.412Z,15.20
2023-03-24T16:59:05.988Z,15.00
2023-03-24T17:01:40.812Z,14.90
2023-03-24T17:04:16.696Z,14.70
2023-03-24T17:06:49.302Z,14.60
2023-03-24T17:09:16.934Z,14.50
2023-03-24T17:11:48.567Z,14.30
2023-03-24T17:14:15.776Z,14.20
2023-03-24T17:16:44.628Z,14.10
2023-03-24T17:19:18.482Z,14.10
2023-03-24T17:22:03.743Z,13.90
2023-03-24T17:24:39.131Z,13.80
2023-03-24T17:27:34.016Z,13.70
2023-03-24T17:30:28.757Z,13.60
2023-03-24T17:33:03.695Z,13.60
2023-03-24T17:35:41.366Z,13.50
2023-03-24T17:38:16.060Z,13.40
2023-03-24T17:41:07.421Z,13.30
2023-03-24T17:43:50.681Z,13.30
2023-03-24T17:47:00.967Z,13.20
2023-03-24T17:49:47.845Z,13.20
2023-03-24T17:52:22.724Z,13.10
2023-03-24T17:54:52.815Z,13.10
2023-03-24T17:57:21.974Z,13.00
2023-03-24T17:59:52.927Z,13.00
2023-03-24T18:02:22.153Z,12.90
2023-03-24T18:04:51.996Z,12.80
2023-03-24T18:07:19.197Z,12.80
2023-03-24T18:09:46.395Z,12.70
2023-03-24T18:12:13.484Z,12.60
2023-03-24T18:14:40.587Z,12.60
2023-03-24T18:17:07.586Z,12.50
2023-03-24T18:19:34.595Z,12.50
2023-03-24T18:22:01.620Z,12.50
2023-03-24T18:24:28.964Z,12.50
2023-03-24T18:26:56.013Z,12.50
2023-03-24T18:29:24.068Z,12.40
2023-03-24T18:31:51.406Z,12.40
2023-03-24T18:34:18.466Z,12.40
2023-03-24T18:36:46.277Z,12.40
2023-03-24T18:39:13.586Z,12.30
2023-03-24T18:41:40.617Z,12.40
2023-03-24T18:44:11.414Z,12.30
2023-03-24T18:46:38.406Z,12.30
2023-03-24T18:49:06.207Z,12.30
2023-03-24T18:51:33.463Z,12.20
2023-03-24T18:54:00.433Z,12.20
2023-03-24T18:56:28.149Z,12.20
2023-03-24T18:58:55.665Z,12.10
2023-03-24T19:01:23.056Z,12.10
2023-03-24T19:03:51.995Z,12.10
2023-03-24T19:06:21.026Z,12.00
2023-03-24T19:08:53.050Z,12.00
2023-03-24T19:11:26.341Z,12.00
2023-03-24T19:13:56.497Z,12.00
2023-03-24T19:16:23.498Z,12.00
2023-03-24T19:18:50.955Z,12.00
2023-03-24T19:21:19.157Z,12.00
2023-03-24T19:23:47.062Z,12.00
2023-03-24T19:26:16.466Z,12.00
2023-03-24T19:28:43.975Z,12.10
2023-03-24T19:31:15.067Z,12.10
2023-03-24T19:33:42.070Z,12.10
2023-03-24T19:36:10.439Z,12.20
2023-03-24T19:38:38.957Z,12.30
2023-03-24T19:41:08.363Z,12.30
2023-03-24T19:43:36.755Z,12.30
2023-03-24T19:46:04.712Z,12.40
2023-03-24T19:48:32.035Z,12.40
2023-03-24T19:50:58.970Z,12.40
2023-03-24T19:53:26.916Z,12.50
2023-03-24T19:55:57.836Z,12.50
2023-03-24T19:58:24.984Z,12.50
2023-03-24T20:00:52.646Z,12.50
2023-03-24T20:03:19.833Z,12.50
2023-03-24T20:05:47.055Z,12.50
2023-03-24T20:08:14.094Z,12.50
2023-03-24T20:10:41.133Z,12.50
2023-03-24T20:13:09.227Z,12.50
2023-03-24T20:15:36.912Z,12.50
2023-03-24T20:18:04.154Z,12.60
2023-03-24T20:20:31.720Z,12.50
2023-03-24T20:22:58.787Z,12.50
2023-03-24T20:25:25.852Z,12.50
2023-03-24T20:27:52.757Z,12.50
2023-03-24T20:30:20.695Z,12.50
2023-03-24T20:32:48.172Z,12.50
2023-03-24T20:35:15.992Z,12.50
2023-03-24T20:37:43.149Z,12.50
2023-03-24T20:40:10.572Z,12.50
2023-03-24T20:42:37.953Z,12.50
2023-03-24T20:45:06.912Z,12.50
2023-03-24T20:47:33.972Z,12.50
2023-03-24T20:50:01.335Z,12.50
2023-03-24T20:52:29.329Z,12.50
2023-03-24T20:54:56.595Z,12.50
2023-03-24T20:57:25.736Z,12.60
2023-03-24T20:59:52.818Z,12.60
2023-03-24T21:02:20.322Z,12.60
2023-03-24T21:04:47.549Z,12.60
2023-03-24T21:07:14.539Z,12.60
2023-03-24T21:09:41.657Z,12.60
2023-03-24T21:12:09.497Z,12.60
2023-03-24T21:14:36.630Z,12.60
2023-03-24T21:17:03.930Z,12.60
2023-03-24T21:19:30.889Z,12.60
2023-03-24T21:21:57.877Z,12.60
2023-03-24T21:24:24.868Z,12.60
2023-03-24T21:26:53.931Z,12.60
2023-03-24T21:29:22.581Z,12.60
2023-03-24T21:31:49.984Z,12.60
2023-03-24T21:34:17.131Z,12.70
2023-03-24T21:36:44.086Z,12.70
2023-03-24T21:39:12.100Z,12.70
2023-03-24T21:41:39.909Z,12.70
2023-03-24T21:44:09.275Z,12.70
2023-03-24T21:46:37.060Z,12.70
2023-03-24T21:49:05.207Z,12.70
2023-03-24T21:51:34.263Z,12.60
2023-03-24T21:54:03.503Z,12.60
2023-03-24T21:56:34.614Z,12.50
2023-03-24T21:59:01.801Z,12.50
2023-03-24T22:01:28.911Z,12.40
2023-03-24T22:03:58.646Z,12.40
2023-03-24T22:06:29.187Z,12.30
2023-03-24T22:08:58.521Z,12.30
2023-03-24T22:11:26.231Z,12.20
2023-03-24T22:13:53.885Z,12.10
2023-03-24T22:16:21.101Z,12.00
2023-03-24T22:18:47.949Z,11.90
2023-03-24T22:21:15.401Z,11.90
2023-03-24T22:23:43.139Z,11.90
2023-03-24T22:26:13.675Z,11.90
2023-03-24T22:28:42.409Z,11.80
2023-03-24T22:31:14.770Z,11.80
2023-03-24T22:33:42.627Z,11.80
2023-03-24T22:36:10.367Z,11.80
2023-03-24T22:38:37.723Z,11.80
2023-03-24T22:41:10.025Z,11.70
2023-03-24T22:43:42.338Z,11.70
2023-03-24T22:46:12.840Z,11.70
2023-03-24T22:48:40.975Z,11.70
2023-03-24T22:51:09.214Z,11.70
2023-03-24T22:53:36.203Z,11.80
2023-03-24T22:56:03.635Z,11.80
2023-03-24T22:58:30.658Z,11.90
2023-03-24T23:00:57.649Z,11.90
2023-03-24T23:03:24.591Z,12.00
2023-03-24T23:05:52.084Z,12.00
2023-03-24T23:08:19.584Z,12.00
2023-03-24T23:10:47.481Z,12.00
2023-03-24T23:13:17.131Z,11.90
2023-03-24T23:15:44.467Z,11.90
2023-03-24T23:18:12.169Z,11.90
2023-03-24T23:20:41.007Z,11.90
2023-03-24T23:23:09.139Z,11.90
2023-03-24T23:25:43.140Z,12.00
2023-03-24T23:28:11.485Z,11.90
2023-03-24T23:30:39.324Z,11.90
2023-03-24T23:33:06.526Z,11.90
2023-03-24T23:35:34.041Z,11.90
2023-03-24T23:38:02.484Z,11.80
2023-03-24T23:40:29.342Z,11.80
2023-03-24T23:42:56.397Z,11.80
2023-03-24T23:45:23.317Z,11.70
2023-03-24T23:47:52.103Z,11.70
2023-03-24T23:50:20.582Z,11.70
2023-03-24T23:52:48.279Z,11.70
2023-03-24T23:55:17.970Z,11.70
2023-03-24T23:57:46.733Z,11.70
